Time;durP1;ratioP1;P1;durP2;ratioP2;P2;SDS_P1;SDS_P2;PMS_P1;PMS_P2;Temp;Humidity;BMP_temperature;BMP_pressure;BME280_temperature;BME280_humidity;BME280_pressure;Samples;Min_cycle;Max_cycle;Signal;HPM_P1;HPM_P2
2021/04/06 00:00:29;;;;;;;19.48;13.57;;;230.70;1536.00;;;;;;5076799;28;20027;-69
2021/04/06 00:03:01;;;;;;;16.80;12.65;;;230.70;1536.00;;;;;;5075092;28;20055;-68
2021/04/06 00:05:30;;;;;;;17.85;12.75;;;230.70;1561.60;;;;;;5076572;28;20031;-69
2021/04/06 00:07:59;;;;;;;15.48;12.73;;;230.70;1536.00;;;;;;5076663;28;20469;-70
2021/04/06 00:10:43;;;;;;;16.45;12.05;;;230.70;1536.00;;;;;;5076617;28;20044;-68
2021/04/06 00:13:10;;;;;;;21.42;13.15;;;230.60;1536.00;;;;;;5076500;28;20024;-68
2021/04/06 00:15:37;;;;;;;18.10;12.45;;;230.60;1561.60;;;;;;5076544;28;20028;-68
2021/04/06 00:18:05;;;;;;;15.98;13.20;;;230.70;1561.60;;;;;;5076885;28;20029;-68
2021/04/06 00:20:34;;;;;;;16.30;12.77;;;230.70;1561.60;;;;;;5076468;28;20044;-70
2021/04/06 00:23:02;;;;;;;17.45;13.15;;;230.60;1561.60;;;;;;5076112;28;20499;-68
2021/04/06 00:25:38;;;;;;;18.70;13.82;;;230.60;1561.60;;;;;;5075010;28;20021;-68
2021/04/06 00:28:08;;;;;;;19.20;13.38;;;230.60;1587.20;;;;;;5076235;28;20036;-68
2021/04/06 00:30:35;;;;;;;16.55;13.50;;;230.60;1587.20;;;;;;5076133;28;20029;-68
2021/04/06 00:33:15;;;;;;;26.90;14.07;;;230.60;1561.60;;;;;;5076155;28;20041;-69
2021/04/06 00:35:41;;;;;;;23.35;13.82;;;230.60;1587.20;;;;;;5075547;28;20420;-70
2021/04/06 00:38:15;;;;;;;19.13;14.32;;;230.50;1587.20;;;;;;5075967;28;20032;-68
2021/04/06 00:40:47;;;;;;;18.98;13.85;;;230.50;1587.20;;;;;;5075961;28;20481;-70
2021/04/06 00:43:17;;;;;;;26.02;14.25;;;230.50;1587.20;;;;;;5075789;28;20029;-70
2021/04/06 00:45:45;;;;;;;18.02;13.13;;;230.50;1587.20;;;;;;5076006;28;20373;-69
2021/04/06 00:48:14;;;;;;;20.15;13.95;;;230.50;1587.20;;;;;;5075694;28;20050;-69
2021/04/06 00:50:56;;;;;;;17.80;14.43;;;230.50;1587.20;;;;;;5075739;28;20077;-69
2021/04/06 00:53:22;;;;;;;22.27;15.65;;;230.50;1587.20;;;;;;5075634;28;20043;-69
2021/04/06 00:55:50;;;;;;;22.50;14.68;;;230.50;1587.20;;;;;;5075723;28;20028;-69
2021/04/06 00:58:17;;;;;;;19.02;14.20;;;230.50;1612.80;;;;;;5075536;28;20021;-68
2021/04/06 01:00:44;;;;;;;18.48;14.20;;;230.50;1612.80;;;;;;5075471;28;20033;-68
2021/04/06 01:03:15;;;;;;;21.67;14.40;;;230.50;1612.80;;;;;;5075467;28;20456;-69
2021/04/06 01:05:59;;;;;;;21.75;16.05;;;230.50;1612.80;;;;;;5075479;28;20020;-69
2021/04/06 01:08:31;;;;;;;21.70;15.57;;;230.60;1612.80;;;;;;5076005;28;20036;-68
2021/04/06 01:11:00;;;;;;;20.75;15.20;;;230.60;1612.80;;;;;;5075500;28;20028;-68
2021/04/06 01:13:27;;;;;;;22.17;15.90;;;230.60;1612.80;;;;;;5075502;28;20048;-70
2021/04/06 01:15:56;;;;;;;19.75;15.35;;;230.60;1612.80;;;;;;5075190;28;20032;-69
2021/04/06 01:18:25;;;;;;;21.52;16.27;;;230.50;1612.80;;;;;;5075169;28;20033;-68
2021/04/06 01:20:56;;;;;;;22.38;15.65;;;230.50;1612.80;;;;;;5075003;28;20024;-70
2021/04/06 01:23:23;;;;;;;21.00;15.93;;;230.50;1612.80;;;;;;5074876;28;20106;-68
2021/04/06 01:25:55;;;;;;;19.88;14.30;;;230.50;1638.40;;;;;;5075155;28;20025;-69
2021/04/06 01:28:25;;;;;;;23.08;15.35;;;230.50;1612.80;;;;;;5075107;28;20055;-69
2021/04/06 01:30:52;;;;;;;17.23;13.93;;;230.50;1612.80;;;;;;5074975;28;20029;-70
2021/04/06 01:33:21;;;;;;;20.55;15.73;;;230.50;1638.40;;;;;;5075107;28;20034;-70
2021/04/06 01:35:49;;;;;;;20.77;16.35;;;230.40;1638.40;;;;;;5074486;28;20032;-70
2021/04/06 01:38:16;;;;;;;24.15;16.90;;;230.40;1638.40;;;;;;5074548;28;20035;-69
2021/04/06 01:40:43;;;;;;;22.00;16.38;;;230.40;1638.40;;;;;;5074866;28;20412;-68
2021/04/06 01:43:10;;;;;;;23.05;16.70;;;230.40;1638.40;;;;;;5074513;28;20028;-69
2021/04/06 01:45:47;;;;;;;23.75;16.13;;;230.40;1638.40;;;;;;5074662;28;20525;-70
2021/04/06 01:48:17;;;;;;;22.58;17.70;;;230.40;1638.40;;;;;;5074784;28;20032;-70
2021/04/06 01:50:51;;;;;;;25.15;17.48;;;230.40;1638.40;;;;;;5074383;28;20035;-70
2021/04/06 01:53:18;;;;;;;22.08;16.30;;;230.40;1638.40;;;;;;5074665;28;20106;-69
2021/04/06 01:56:05;;;;;;;29.20;17.20;;;230.40;1664.00;;;;;;5074371;28;20025;-70
2021/04/06 01:58:33;;;;;;;23.25;17.15;;;230.40;1664.00;;;;;;5074380;28;20028;-68
2021/04/06 02:03:51;;;;;;;25.52;17.55;;;205.70;1638.40;;;;;;5074170;28;20106;-68
2021/04/06 02:06:17;;;;;;;24.95;17.48;;;205.70;1664.00;;;;;;5074250;28;20021;-68
2021/04/06 02:08:49;;;;;;;28.73;17.60;;;205.70;1664.00;;;;;;5074522;28;20036;-68
2021/04/06 02:11:21;;;;;;;22.33;15.80;;;205.70;1664.00;;;;;;5073636;28;20394;-68
2021/04/06 02:13:47;;;;;;;22.23;17.65;;;205.60;1664.00;;;;;;5074287;28;20025;-68
2021/04/06 02:16:13;;;;;;;22.92;17.20;;;205.60;1664.00;;;;;;5074056;28;20103;-69
2021/04/06 02:18:38;;;;;;;25.95;18.13;;;205.60;1664.00;;;;;;5074326;28;20049;-68
2021/04/06 02:21:06;;;;;;;24.88;17.45;;;205.50;1664.00;;;;;;5073848;28;20020;-68
2021/04/06 02:23:50;;;;;;;25.95;17.58;;;205.50;1664.00;;;;;;5074064;28;20082;-70
2021/04/06 02:26:16;;;;;;;25.10;18.48;;;205.50;1689.60;;;;;;5074071;28;20033;-68
2021/04/06 02:28:42;;;;;;;26.27;17.95;;;205.40;1689.60;;;;;;5074075;28;20419;-69
2021/04/06 02:31:08;;;;;;;25.08;18.52;;;205.40;1689.60;;;;;;5074167;28;20095;-69
2021/04/06 02:33:36;;;;;;;27.25;19.00;;;205.40;1715.20;;;;;;5073778;28;20024;-68
2021/04/06 02:36:02;;;;;;;24.50;17.00;;;205.40;1715.20;;;;;;5073580;28;20049;-68
2021/04/06 02:38:29;;;;;;;29.40;18.17;;;205.40;1715.20;;;;;;5073741;28;20020;-68
2021/04/06 02:41:11;;;;;;;25.65;17.73;;;205.40;1715.20;;;;;;5073708;28;20031;-68
2021/04/06 02:43:52;;;;;;;29.73;18.67;;;205.40;1715.20;;;;;;5073840;28;20036;-69
2021/04/06 02:46:25;;;;;;;24.15;18.27;;;205.40;1689.60;;;;;;5073615;28;20025;-68
2021/04/06 02:48:53;;;;;;;26.95;18.60;;;205.40;1689.60;;;;;;5072189;28;20040;-68
2021/04/06 02:51:19;;;;;;;29.02;18.70;;;205.40;1715.20;;;;;;5073251;28;20051;-70
2021/04/06 02:53:51;;;;;;;28.42;18.52;;;205.40;1715.20;;;;;;5073691;28;20533;-70
2021/04/06 02:56:49;;;;;;;24.73;17.77;;;205.40;1715.20;;;;;;5073436;28;20053;-68
2021/04/06 02:59:19;;;;;;;27.88;17.88;;;205.40;1715.20;;;;;;5031520;28;20121;-70
2021/04/06 03:01:47;;;;;;;26.40;17.73;;;205.40;1715.20;;;;;;5031523;28;20037;-69
2021/04/06 03:04:16;;;;;;;22.52;16.63;;;205.40;1715.20;;;;;;5031220;28;20548;-68
2021/04/06 03:06:42;;;;;;;26.27;17.65;;;205.40;1689.60;;;;;;5031269;28;20030;-66
2021/04/06 03:09:12;;;;;;;21.63;15.65;;;205.40;1689.60;;;;;;5031622;28;20087;-69
2021/04/06 03:11:44;;;;;;;29.10;17.02;;;205.40;1689.60;;;;;;5031354;28;20040;-71
2021/04/06 03:14:10;;;;;;;25.88;16.45;;;205.50;1664.00;;;;;;5031451;28;20026;-68
2021/04/06 03:16:37;;;;;;;31.73;16.35;;;205.60;1664.00;;;;;;5031145;28;20418;-68
2021/04/06 03:19:04;;;;;;;22.65;15.10;;;205.60;1638.40;;;;;;5031259;28;20422;-68
2021/04/06 03:21:32;;;;;;;25.20;15.90;;;205.60;1612.80;;;;;;5031361;28;20068;-68
2021/04/06 03:24:00;;;;;;;24.40;14.45;;;205.70;1612.80;;;;;;5035025;28;20108;-68
2021/04/06 03:26:27;;;;;;;20.80;13.68;;;205.70;1587.20;;;;;;5035234;28;20052;-68
2021/04/06 03:28:55;;;;;;;31.65;15.13;;;230.40;1587.20;;;;;;5035205;28;20107;-71
2021/04/06 03:31:21;;;;;;;23.42;14.30;;;230.40;1587.20;;;;;;5035141;28;20592;-68
2021/04/06 03:33:49;;;;;;;20.35;12.77;;;230.40;1561.60;;;;;;5038398;28;20069;-71
2021/04/06 03:36:33;;;;;;;21.73;13.30;;;230.40;1561.60;;;;;;5076940;28;20052;-71
2021/04/06 03:39:05;;;;;;;23.02;12.45;;;230.50;1561.60;;;;;;5075699;28;20028;-71
2021/04/06 03:41:33;;;;;;;22.98;12.05;;;230.50;1561.60;;;;;;5076867;28;20028;-68
2021/04/06 03:44:10;;;;;;;19.02;12.40;;;230.50;1561.60;;;;;;5076876;28;20036;-71
2021/04/06 03:46:38;;;;;;;19.33;12.65;;;230.60;1587.20;;;;;;5076743;28;20036;-68
2021/04/06 03:49:24;;;;;;;23.27;12.32;;;230.50;1587.20;;;;;;5077136;28;20016;-68
2021/04/06 03:52:02;;;;;;;18.70;11.63;;;230.60;1561.60;;;;;;5076700;28;20034;-70
2021/04/06 03:54:31;;;;;;;17.92;11.60;;;230.60;1587.20;;;;;;5076921;28;20021;-68
2021/04/06 03:56:57;;;;;;;18.13;11.65;;;230.60;1587.20;;;;;;5076294;28;20028;-68
2021/04/06 03:59:27;;;;;;;20.67;11.48;;;230.60;1587.20;;;;;;5076245;28;20054;-67
2021/04/06 04:01:53;;;;;;;20.30;11.90;;;230.60;1587.20;;;;;;5075298;28;20406;-68
2021/04/06 04:04:19;;;;;;;17.67;11.68;;;230.60;1587.20;;;;;;5076522;28;20039;-68
2021/04/06 04:06:45;;;;;;;19.52;13.35;;;230.60;1587.20;;;;;;5076836;28;20347;-71
2021/04/06 04:09:10;;;;;;;20.27;11.77;;;230.60;1587.20;;;;;;5076592;28;20370;-68
2021/04/06 04:11:36;;;;;;;18.73;11.77;;;230.60;1587.20;;;;;;5076410;28;20025;-69
2021/04/06 04:14:02;;;;;;;20.20;11.48;;;230.60;1587.20;;;;;;5076640;28;20084;-67
2021/04/06 04:16:28;;;;;;;18.27;11.45;;;230.70;1587.20;;;;;;5076791;28;20025;-68
2021/04/06 04:18:54;;;;;;;17.35;12.07;;;230.70;1587.20;;;;;;5076459;28;20480;-68
2021/04/06 04:21:19;;;;;;;18.42;11.52;;;230.70;1561.60;;;;;;5076936;28;20107;-70
2021/04/06 04:23:45;;;;;;;16.27;9.95;;;230.70;1561.60;;;;;;5076241;28;20124;-68
2021/04/06 04:26:11;;;;;;;15.65;10.23;;;230.70;1536.00;;;;;;5076174;28;20450;-68
2021/04/06 04:28:36;;;;;;;18.98;10.98;;;230.70;1536.00;;;;;;5076269;28;20032;-68
2021/04/06 04:31:10;;;;;;;16.55;10.40;;;230.80;1536.00;;;;;;5076239;28;20385;-68
2021/04/06 04:33:35;;;;;;;17.17;10.73;;;230.70;1536.00;;;;;;5074134;28;20033;-70
2021/04/06 04:36:01;;;;;;;16.15;10.68;;;230.80;1510.40;;;;;;5075810;28;20073;-68
2021/04/06 04:38:27;;;;;;;16.23;10.98;;;230.80;1510.40;;;;;;5076248;28;20400;-70
2021/04/06 04:40:53;;;;;;;15.00;9.60;;;230.80;1510.40;;;;;;5074636;28;20063;-69
2021/04/06 04:43:18;;;;;;;20.90;10.00;;;230.80;1484.80;;;;;;5077488;28;20054;-67
2021/04/06 04:45:44;;;;;;;17.65;9.52;;;230.90;1484.80;;;;;;5075845;28;20025;-68
2021/04/06 04:48:10;;;;;;;17.20;9.27;;;230.90;1484.80;;;;;;5075842;28;20036;-69
2021/04/06 04:50:36;;;;;;;15.02;8.75;;;231.00;1484.80;;;;;;5075659;28;20032;-68
2021/04/06 04:53:01;;;;;;;28.30;8.35;;;231.00;1510.40;;;;;;5075450;28;20457;-71
2021/04/06 04:55:27;;;;;;;17.48;6.80;;;231.00;1510.40;;;;;;5075492;28;20036;-67
2021/04/06 04:57:53;;;;;;;30.23;6.65;;;231.00;1536.00;;;;;;5075447;28;20028;-67
2021/04/06 05:00:20;;;;;;;18.65;5.60;;;231.00;1536.00;;;;;;5075674;28;20032;-68
2021/04/06 05:02:46;;;;;;;19.63;5.68;;;231.00;1536.00;;;;;;5075488;28;20025;-69
2021/04/06 05:05:14;;;;;;;13.15;5.18;;;231.00;1561.60;;;;;;5075430;28;20033;-67
2021/04/06 05:07:44;;;;;;;17.83;4.32;;;231.00;1536.00;;;;;;5075431;28;20063;-68
2021/04/06 05:10:12;;;;;;;14.18;3.75;;;231.00;1536.00;;;;;;5075178;28;20466;-68
2021/04/06 05:12:38;;;;;;;22.08;4.47;;;231.00;1536.00;;;;;;5075260;28;20073;-68
2021/04/06 05:15:06;;;;;;;20.88;3.75;;;231.00;1510.40;;;;;;5075098;28;20517;-68
2021/04/06 05:17:32;;;;;;;13.30;2.67;;;231.00;1510.40;;;;;;5075279;28;20021;-68
2021/04/06 05:19:59;;;;;;;10.55;2.75;;;231.00;1510.40;;;;;;5075100;28;20028;-69
2021/04/06 05:22:24;;;;;;;27.27;3.50;;;231.00;1510.40;;;;;;5073764;28;20098;-70
2021/04/06 05:24:50;;;;;;;14.60;2.10;;;230.90;1484.80;;;;;;5074985;28;20474;-67
2021/04/06 05:27:16;;;;;;;16.42;2.63;;;230.90;1484.80;;;;;;5075146;28;20051;-67
2021/04/06 05:29:42;;;;;;;11.45;2.70;;;230.90;1510.40;;;;;;5075197;28;20370;-69
2021/04/06 05:32:07;;;;;;;10.95;2.92;;;230.90;1510.40;;;;;;5074941;28;20051;-67
2021/04/06 05:34:33;;;;;;;12.63;3.47;;;230.90;1484.80;;;;;;5074999;28;20469;-71
2021/04/06 05:36:59;;;;;;;7.22;2.90;;;230.90;1484.80;;;;;;5074589;28;20087;-68
2021/04/06 05:39:25;;;;;;;3.42;1.90;;;230.90;1510.40;;;;;;5074977;28;20020;-68
2021/04/06 05:41:51;;;;;;;12.40;2.30;;;230.80;1484.80;;;;;;5074769;28;20044;-72
2021/04/06 05:44:17;;;;;;;9.38;2.75;;;230.80;1484.80;;;;;;5074526;28;20497;-68
2021/04/06 05:46:49;;;;;;;9.98;2.88;;;230.80;1484.80;;;;;;5074604;28;20051;-68
2021/04/06 05:49:24;;;;;;;16.35;3.13;;;230.80;1510.40;;;;;;5074576;28;20533;-68
2021/04/06 05:51:50;;;;;;;13.75;3.58;;;230.80;1484.80;;;;;;5074231;28;20036;-68
2021/04/06 05:54:17;;;;;;;7.32;2.60;;;230.80;1484.80;;;;;;5074310;28;20028;-68
2021/04/06 05:56:43;;;;;;;8.73;2.40;;;230.70;1484.80;;;;;;5074505;28;20107;-68
2021/04/06 05:59:09;;;;;;;6.35;2.72;;;230.70;1484.80;;;;;;5074367;28;20028;-67
2021/04/06 06:01:43;;;;;;;6.05;2.80;;;230.70;1484.80;;;;;;5074399;28;20029;-71
2021/04/06 06:04:18;;;;;;;5.18;2.80;;;230.70;1484.80;;;;;;5074390;28;20086;-67
2021/04/06 06:06:44;;;;;;;;;;;230.70;1459.20;;;;;;5074464;28;20115;-71
2021/04/06 06:09:11;;;;;;;4.30;2.13;;;230.70;1459.20;;;;;;5074333;28;19908;-71
2021/04/06 06:12:07;;;;;;;5.50;3.03;;;230.70;1459.20;;;;;;5072856;28;20028;-68
2021/04/06 06:14:39;;;;;;;10.38;3.95;;;230.70;1459.20;;;;;;5074011;28;20036;-68
2021/04/06 06:17:12;;;;;;;10.55;4.47;;;230.60;1459.20;;;;;;5073551;28;20028;-68
2021/04/06 06:19:37;;;;;;;11.70;5.90;;;230.60;1459.20;;;;;;5074220;28;20082;-68
2021/04/06 06:22:15;;;;;;;15.40;6.55;;;230.50;1459.20;;;;;;5073894;28;20024;-68
2021/04/06 06:24:44;;;;;;;10.63;5.68;;;230.60;1459.20;;;;;;5073821;28;20036;-68
2021/04/06 06:27:42;;;;;;;6.85;3.60;;;230.50;1433.60;;;;;;5074030;28;20409;-67
2021/04/06 06:30:34;;;;;;;8.93;3.20;;;230.50;1433.60;;;;;;5073747;28;20656;-68
2021/04/06 06:33:14;;;;;;;8.13;3.58;;;230.40;1433.60;;;;;;5073874;28;20024;-71
2021/04/06 06:35:40;;;;;;;7.90;4.18;;;230.40;1433.60;;;;;;5073897;28;20041;-68
2021/04/06 06:38:24;;;;;;;7.22;4.85;;;230.40;1433.60;;;;;;5073845;28;20044;-70
2021/04/06 06:40:53;;;;;;;15.82;6.10;;;230.40;1433.60;;;;;;5073735;28;20063;-69
2021/04/06 06:43:21;;;;;;;15.10;6.95;;;205.70;1433.60;;;;;;5073370;28;20032;-68
2021/04/06 06:45:49;;;;;;;19.05;8.32;;;205.70;1433.60;;;;;;5073762;28;20048;-68
2021/04/06 06:48:34;;;;;;;27.27;10.70;;;205.70;1433.60;;;;;;5073882;28;20025;-68
2021/04/06 06:51:03;;;;;;;25.52;11.45;;;205.60;1433.60;;;;;;5073439;28;20035;-69
2021/04/06 06:53:40;;;;;;;31.88;13.02;;;205.60;1433.60;;;;;;5073377;28;20087;-69
2021/04/06 06:56:07;;;;;;;30.67;14.40;;;205.60;1433.60;;;;;;5072981;28;20036;-69
2021/04/06 06:58:41;;;;;;;26.63;12.90;;;205.50;1433.60;;;;;;5073213;28;20028;-67
2021/04/06 07:01:08;;;;;;;12.45;7.32;;;205.50;1433.60;;;;;;5066497;28;20028;-68
2021/04/06 07:03:34;;;;;;;13.88;6.30;;;205.50;1433.60;;;;;;5063330;28;20043;-72
2021/04/06 07:06:22;;;;;;;17.88;6.93;;;205.50;1433.60;;;;;;5062612;28;20025;-68
2021/04/06 07:08:48;;;;;;;17.15;6.63;;;205.50;1408.00;;;;;;5061964;28;20017;-69
2021/04/06 07:11:15;;;;;;;10.20;4.78;;;205.40;1433.60;;;;;;5060721;28;20488;-72
2021/04/06 07:13:44;;;;;;;12.57;4.55;;;205.40;1408.00;;;;;;5061986;28;20031;-68
2021/04/06 07:16:14;;;;;;;10.48;4.68;;;205.40;1408.00;;;;;;5054276;28;20414;-74
2021/04/06 07:18:42;;;;;;;17.77;5.97;;;205.40;1433.60;;;;;;5067586;28;20024;-70
2021/04/06 07:21:10;;;;;;;21.75;8.23;;;205.40;1433.60;;;;;;5072114;28;20405;-66
2021/04/06 07:23:39;;;;;;;18.95;8.63;;;205.30;1433.60;;;;;;5072301;28;20037;-71
2021/04/06 07:26:07;;;;;;;15.43;6.68;;;205.30;1433.60;;;;;;5068834;28;20044;-74
2021/04/06 07:28:33;;;;;;;21.45;13.88;;;205.30;1433.60;;;;;;5056142;28;20048;-68
2021/04/06 07:30:58;;;;;;;17.90;13.10;;;205.30;1433.60;;;;;;5054804;28;20021;-68
2021/04/06 07:33:27;;;;;;;23.20;17.23;;;205.50;1689.60;;;;;;5051887;28;20032;-65
2021/04/06 07:35:54;;;;;;;15.50;11.35;;;205.70;1638.40;;;;;;5052667;28;20131;-74
2021/04/06 07:38:19;;;;;;;20.83;13.77;;;230.40;1561.60;;;;;;5052620;28;20104;-70
2021/04/06 07:40:46;;;;;;;23.33;12.55;;;230.50;1484.80;;;;;;5052360;28;20113;-68
2021/04/06 07:43:12;;;;;;;37.47;11.32;;;230.50;1433.60;;;;;;5052276;28;20040;-72
2021/04/06 07:45:40;;;;;;;36.45;10.60;;;230.50;1408.00;;;;;;5050988;28;20037;-68
2021/04/06 07:48:08;;;;;;;20.35;10.48;;;230.50;1382.40;;;;;;5052038;28;20026;-68
2021/04/06 07:50:36;;;;;;;27.42;10.95;;;230.50;1356.80;;;;;;5052559;28;20407;-68
2021/04/06 07:53:25;;;;;;;19.27;9.02;;;230.40;1356.80;;;;;;5052676;28;20053;-68
2021/04/06 07:55:56;;;;;;;13.68;9.32;;;230.40;1331.20;;;;;;5052107;28;20017;-69
2021/04/06 07:58:46;;;;;;;28.40;18.67;;;205.70;1331.20;;;;;;5052248;28;20075;-67
2021/04/06 08:01:17;;;;;;;27.52;15.80;;;205.60;1331.20;;;;;;5052099;28;20021;-67
2021/04/06 08:03:49;;;;;;;18.75;11.32;;;205.50;1331.20;;;;;;5052404;28;20044;-67
2021/04/06 08:06:18;;;;;;;14.00;9.20;;;205.40;1331.20;;;;;;5052130;28;20028;-69
2021/04/06 08:08:44;;;;;;;15.15;9.73;;;205.40;1331.20;;;;;;5052095;28;20036;-67
2021/04/06 08:11:10;;;;;;;14.00;9.65;;;205.30;1356.80;;;;;;5055858;28;20037;-69
2021/04/06 08:13:36;;;;;;;58.70;37.10;;;205.30;1331.20;;;;;;5055839;28;20029;-67
2021/04/06 08:16:15;;;;;;;32.03;22.00;;;205.20;1356.80;;;;;;5055619;28;20036;-66
2021/04/06 08:19:04;;;;;;;16.85;10.20;;;205.10;1356.80;;;;;;5055598;28;20025;-71
2021/04/06 08:21:30;;;;;;;41.75;30.15;;;205.10;1356.80;;;;;;5055555;28;20033;-66
2021/04/06 08:23:56;;;;;;;27.38;17.80;;;205.10;1356.80;;;;;;5055296;28;20166;-69
2021/04/06 08:26:32;;;;;;;19.23;11.98;;;205.00;1382.40;;;;;;5055605;28;20085;-70
2021/04/06 08:29:24;;;;;;;42.60;15.05;;;205.00;1382.40;;;;;;5055523;28;20079;-68
2021/04/06 08:32:15;;;;;;;28.67;14.63;;;205.00;1382.40;;;;;;5013202;28;20519;-68
2021/04/06 08:35:07;;;;;;;24.23;13.98;;;205.10;1382.40;;;;;;5013629;28;20447;-67
2021/04/06 08:37:38;;;;;;;25.95;16.02;;;205.10;1356.80;;;;;;5009593;28;20614;-68
2021/04/06 08:40:06;;;;;;;26.85;15.35;;;205.10;1356.80;;;;;;5013097;28;20022;-69
2021/04/06 08:42:34;;;;;;;24.95;14.82;;;205.10;1356.80;;;;;;5013411;28;20137;-68
2021/04/06 08:45:00;;;;;;;20.50;12.25;;;205.10;1356.80;;;;;;5013351;28;20065;-68
2021/04/06 08:47:40;;;;;;;24.58;12.65;;;205.20;1356.80;;;;;;5013096;28;20029;-67
2021/04/06 08:50:11;;;;;;;23.40;16.25;;;205.20;1331.20;;;;;;5013204;28;20373;-67
2021/04/06 08:52:37;;;;;;;23.35;17.50;;;205.20;1331.20;;;;;;5013254;28;20030;-68
2021/04/06 08:55:11;;;;;;;22.60;15.77;;;205.30;1331.20;;;;;;5012879;28;20060;-68
2021/04/06 08:57:38;;;;;;;23.02;13.52;;;205.30;1331.20;;;;;;5013272;28;20022;-68
2021/04/06 09:00:09;;;;;;;22.45;10.40;;;205.30;1331.20;;;;;;5013221;28;20053;-68
2021/04/06 09:02:35;;;;;;;19.95;10.10;;;205.30;1331.20;;;;;;5013063;28;20041;-69
2021/04/06 09:05:00;;;;;;;19.85;11.05;;;205.30;1305.60;;;;;;5013066;28;20435;-67
2021/04/06 09:07:28;;;;;;;26.73;19.02;;;205.30;1305.60;;;;;;5013026;28;20061;-70
2021/04/06 09:09:55;;;;;;;23.95;15.80;;;205.30;1331.20;;;;;;5053506;28;20048;-67
2021/04/06 09:12:23;;;;;;;23.80;14.65;;;205.30;1331.20;;;;;;5055391;28;20032;-69
2021/04/06 09:14:49;;;;;;;34.33;23.98;;;205.30;1331.20;;;;;;5055174;28;20466;-68
2021/04/06 09:17:15;;;;;;;51.47;36.67;;;205.30;1331.20;;;;;;5055068;28;20025;-69
2021/04/06 09:19:41;;;;;;;39.88;30.02;;;205.30;1331.20;;;;;;5054711;28;20029;-69
2021/04/06 09:22:11;;;;;;;34.45;26.40;;;205.30;1331.20;;;;;;5053617;28;20028;-68
2021/04/06 09:24:38;;;;;;;28.52;18.25;;;205.30;1331.20;;;;;;5055093;28;20457;-68
2021/04/06 09:27:05;;;;;;;23.02;15.13;;;205.30;1331.20;;;;;;5055859;28;20365;-68
2021/04/06 09:29:43;;;;;;;15.95;11.38;;;205.30;1331.20;;;;;;5054527;28;20355;-68
2021/04/06 09:32:20;;;;;;;18.42;10.48;;;205.40;1356.80;;;;;;5055023;28;20029;-69
2021/04/06 09:34:48;;;;;;;18.77;11.10;;;205.40;1356.80;;;;;;5054690;28;20017;-68
2021/04/06 09:37:20;;;;;;;17.05;10.63;;;205.50;1356.80;;;;;;5054565;28;20045;-68
2021/04/06 09:39:54;;;;;;;17.63;9.55;;;205.50;1356.80;;;;;;5054523;28;20024;-68
2021/04/06 09:42:20;;;;;;;15.40;9.60;;;205.50;1382.40;;;;;;5057193;28;20494;-68
2021/04/06 09:44:47;;;;;;;12.30;7.78;;;205.60;1382.40;;;;;;5064916;28;20029;-68
2021/04/06 09:47:16;;;;;;;17.38;9.10;;;205.60;1382.40;;;;;;5063682;28;20025;-67
2021/04/06 09:49:45;;;;;;;11.13;7.68;;;205.60;1382.40;;;;;;5068409;28;20020;-67
2021/04/06 09:52:19;;;;;;;13.02;6.82;;;205.60;1382.40;;;;;;5060150;28;20120;-68
2021/04/06 09:54:51;;;;;;;13.73;6.63;;;205.70;1382.40;;;;;;5059500;28;20096;-67
2021/04/06 09:57:18;;;;;;;10.75;5.72;;;205.70;1356.80;;;;;;5063490;28;20027;-69
2021/04/06 09:59:50;;;;;;;18.33;7.70;;;230.40;1356.80;;;;;;5063995;28;20048;-67
2021/04/06 10:02:22;;;;;;;12.60;6.53;;;230.40;1331.20;;;;;;5064975;28;20032;-68
2021/04/06 10:04:50;;;;;;;12.57;5.97;;;230.40;1331.20;;;;;;5063661;28;20029;-68
2021/04/06 10:07:19;;;;;;;12.32;6.32;;;230.40;1331.20;;;;;;5062323;28;20021;-68
2021/04/06 10:09:57;;;;;;;14.10;5.88;;;230.40;1356.80;;;;;;5064085;28;20024;-68
2021/04/06 10:12:25;;;;;;;13.35;5.68;;;230.40;1331.20;;;;;;5062826;28;20009;-69
2021/04/06 10:14:52;;;;;;;16.42;5.40;;;230.40;1331.20;;;;;;5062158;28;20032;-67
2021/04/06 10:17:22;;;;;;;10.48;5.25;;;230.40;1356.80;;;;;;5064219;28;20016;-67
2021/04/06 10:20:06;;;;;;;9.55;5.68;;;230.40;1356.80;;;;;;5064394;28;20055;-68
2021/04/06 10:22:49;;;;;;;13.57;5.55;;;205.70;1382.40;;;;;;5054706;28;20127;-68
2021/04/06 10:25:21;;;;;;;13.02;6.50;;;205.70;1408.00;;;;;;5054047;28;20040;-67
2021/04/06 10:27:52;;;;;;;15.57;6.68;;;205.60;1408.00;;;;;;5054072;28;20071;-68
2021/04/06 10:30:27;;;;;;;14.82;8.55;;;205.60;1433.60;;;;;;5053830;28;20029;-66
2021/04/06 10:33:09;;;;;;;25.83;11.02;;;205.50;1433.60;;;;;;5053142;28;20028;-66
2021/04/06 10:35:51;;;;;;;19.98;10.32;;;205.50;1459.20;;;;;;5053720;28;20029;-67
2021/04/06 10:38:24;;;;;;;15.63;8.98;;;205.40;1484.80;;;;;;5053968;28;20025;-70
2021/04/06 10:41:08;;;;;;;16.58;8.38;;;205.40;1459.20;;;;;;5066025;28;20032;-67
2021/04/06 10:43:35;;;;;;;20.13;8.35;;;205.30;1459.20;;;;;;5073440;28;20032;-67
2021/04/06 10:46:24;;;;;;;12.68;6.70;;;205.30;1433.60;;;;;;5064535;28;20025;-67
2021/04/06 10:49:04;;;;;;;11.65;7.03;;;205.30;1408.00;;;;;;5056383;28;20032;-72
2021/04/06 10:51:31;;;;;;;11.85;7.65;;;205.30;1433.60;;;;;;5056078;28;20020;-67
2021/04/06 10:54:09;;;;;;;12.02;9.10;;;205.30;1408.00;;;;;;5061937;28;20493;-66
2021/04/06 10:56:50;;;;;;;14.98;7.95;;;205.30;1408.00;;;;;;5062360;28;20017;-66
2021/04/06 10:59:27;;;;;;;16.40;8.32;;;205.40;1382.40;;;;;;5071481;28;20111;-67
2021/04/06 11:01:53;;;;;;;10.63;6.35;;;205.40;1382.40;;;;;;5073573;28;20461;-67
2021/04/06 11:04:24;;;;;;;9.70;6.78;;;205.50;1382.40;;;;;;5073415;28;20532;-67
2021/04/06 11:06:59;;;;;;;15.00;7.70;;;205.50;1382.40;;;;;;5073183;28;20040;-72
2021/04/06 11:09:26;;;;;;;11.57;8.30;;;205.50;1382.40;;;;;;5073247;28;20031;-68
2021/04/06 11:11:56;;;;;;;15.60;10.80;;;205.60;1382.40;;;;;;5073396;28;20032;-67
2021/04/06 11:14:26;;;;;;;16.08;11.55;;;205.60;1382.40;;;;;;5073485;28;20029;-67
2021/04/06 11:16:54;;;;;;;34.97;23.08;;;205.70;1382.40;;;;;;5072956;28;20024;-72
2021/04/06 11:19:31;;;;;;;46.70;32.05;;;205.70;1382.40;;;;;;5073498;28;20021;-67
2021/04/06 11:22:00;;;;;;;50.08;31.98;;;205.70;1408.00;;;;;;5073553;28;20112;-67
2021/04/06 11:24:28;;;;;;;51.03;31.73;;;205.70;1408.00;;;;;;5073108;28;20415;-68
2021/04/06 11:26:54;;;;;;;44.67;29.00;;;205.70;1382.40;;;;;;5073353;28;20054;-66
2021/04/06 11:29:23;;;;;;;45.72;26.80;;;205.70;1408.00;;;;;;5073619;28;20481;-68
2021/04/06 11:31:52;;;;;;;28.83;17.08;;;205.70;1408.00;;;;;;5073198;28;20063;-67
2021/04/06 11:34:19;;;;;;;24.98;14.35;;;205.70;1382.40;;;;;;5073301;28;20025;-67
2021/04/06 11:36:45;;;;;;;35.45;24.23;;;205.70;1382.40;;;;;;5072863;28;20122;-67
2021/04/06 11:39:14;;;;;;;47.92;31.65;;;205.70;1382.40;;;;;;5073137;28;20024;-68
2021/04/06 11:41:43;;;;;;;59.97;36.17;;;230.40;1382.40;;;;;;5073196;28;20029;-67
2021/04/06 11:44:10;;;;;;;52.33;32.70;;;230.40;1382.40;;;;;;5075529;28;20033;-67
2021/04/06 11:46:37;;;;;;;47.28;29.30;;;230.40;1382.40;;;;;;5077061;28;20462;-67
2021/04/06 11:49:04;;;;;;;29.92;20.02;;;230.40;1382.40;;;;;;5076992;28;20048;-68
2021/04/06 11:51:30;;;;;;;25.38;16.88;;;230.40;1382.40;;;;;;5076707;28;20477;-67
2021/04/06 11:53:56;;;;;;;27.13;16.60;;;230.50;1382.40;;;;;;5076485;28;20063;-68
2021/04/06 11:56:22;;;;;;;23.33;15.15;;;230.50;1382.40;;;;;;5076627;28;20111;-71
2021/04/06 11:58:48;;;;;;;18.98;13.52;;;230.50;1382.40;;;;;;5076711;28;20103;-72
2021/04/06 12:01:14;;;;;;;20.90;13.00;;;230.60;1356.80;;;;;;5076718;28;20434;-70
2021/04/06 12:03:39;;;;;;;28.13;18.38;;;230.60;1356.80;;;;;;5076561;28;20470;-72
2021/04/06 12:06:05;;;;;;;20.63;12.70;;;230.60;1356.80;;;;;;5076631;28;20020;-73
2021/04/06 12:08:31;;;;;;;19.55;9.98;;;230.70;1356.80;;;;;;5076355;28;20029;-67
2021/04/06 12:10:57;;;;;;;18.00;9.05;;;230.70;1331.20;;;;;;5076443;28;20429;-68
2021/04/06 12:13:23;;;;;;;21.88;9.48;;;230.70;1331.20;;;;;;5076500;28;20025;-68
2021/04/06 12:15:49;;;;;;;13.30;8.25;;;230.80;1331.20;;;;;;5076546;28;20062;-82
2021/04/06 12:18:15;;;;;;;15.05;7.50;;;230.80;1305.60;;;;;;5068940;28;20059;-73
2021/04/06 12:20:41;;;;;;;14.55;8.25;;;230.80;1305.60;;;;;;5065931;28;20060;-73